createdAt,value
2022-08-08T00:01:08.430Z,56.10
2022-08-08T00:03:49.027Z,56.30
2022-08-08T00:06:35.292Z,56.60
2022-08-08T00:09:09.511Z,56.90
2022-08-08T00:11:46.704Z,57.20
2022-08-08T00:14:59.484Z,57.50
2022-08-08T00:17:58.479Z,57.80
2022-08-08T00:20:34.149Z,58.00
2022-08-08T00:23:08.437Z,58.20
2022-08-08T00:25:46.302Z,58.40
2022-08-08T00:28:35.400Z,58.70
2022-08-08T00:32:20.086Z,58.80
2022-08-08T00:34:34.937Z,58.80
2022-08-08T00:37:47.014Z,58.80
2022-08-08T00:41:11.653Z,58.70
2022-08-08T00:44:09.853Z,59.10
2022-08-08T00:47:23.630Z,60.20
2022-08-08T00:50:15.037Z,59.60
2022-08-08T00:52:53.930Z,59.90
2022-08-08T00:55:59.331Z,60.40
2022-08-08T00:59:10.738Z,60.90
2022-08-08T01:01:49.206Z,61.00
2022-08-08T01:05:06.104Z,61.10
2022-08-08T01:08:15.720Z,61.10
2022-08-08T01:11:24.319Z,61.30
2022-08-08T01:14:54.572Z,61.40
2022-08-08T01:18:02.378Z,61.70
2022-08-08T01:20:44.061Z,61.50
2022-08-08T01:24:05.726Z,61.90
2022-08-08T01:27:32.629Z,62.10
2022-08-08T01:30:53.627Z,62.10
2022-08-08T01:34:01.563Z,62.50
2022-08-08T01:37:06.749Z,62.90
2022-08-08T01:40:03.009Z,63.10
2022-08-08T01:42:39.991Z,63.30
2022-08-08T01:45:33.469Z,63.60
2022-08-08T01:48:16.089Z,64.00
2022-08-08T01:51:32.429Z,64.30
2022-08-08T01:55:45.008Z,63.80
2022-08-08T01:57:18.194Z,63.60
2022-08-08T02:00:13.029Z,63.40
2022-08-08T02:03:54.629Z,63.40
2022-08-08T02:06:31.581Z,63.70
2022-08-08T02:09:18.045Z,63.90
2022-08-08T02:11:52.856Z,64.00
2022-08-08T02:14:55.826Z,64.40
2022-08-08T02:17:42.803Z,64.90
2022-08-08T02:21:01.822Z,65.30
2022-08-08T02:23:31.777Z,66.20
2022-08-08T02:26:10.907Z,66.40
2022-08-08T02:28:54.798Z,66.90
2022-08-08T02:32:00.955Z,67.60
2022-08-08T02:35:08.009Z,68.40
2022-08-08T02:38:33.389Z,68.80
2022-08-08T02:41:59.010Z,69.10
2022-08-08T02:44:58.121Z,69.50
2022-08-08T02:48:11.491Z,70.20
2022-08-08T02:51:30.129Z,70.70
2022-08-08T02:54:32.075Z,71.50
2022-08-08T02:57:45.647Z,72.40
2022-08-08T03:00:56.167Z,72.50
2022-08-08T03:05:03.065Z,72.70
2022-08-08T03:07:57.959Z,73.00
2022-08-08T03:10:58.309Z,73.80
2022-08-08T03:16:00.663Z,75.10
2022-08-08T03:16:48.491Z,74.90
2022-08-08T03:19:51.326Z,75.20
2022-08-08T03:22:38.626Z,75.10
2022-08-08T03:25:14.746Z,75.60
2022-08-08T03:27:56.593Z,75.80
2022-08-08T03:30:27.818Z,76.10
2022-08-08T03:33:55.678Z,77.30
2022-08-08T03:36:04.119Z,77.70
2022-08-08T03:38:57.203Z,77.90
2022-08-08T03:42:11.938Z,78.50
2022-08-08T03:44:25.728Z,79.40
2022-08-08T03:46:55.576Z,79.50
2022-08-08T03:49:58.223Z,79.50
2022-08-08T03:52:17.037Z,79.80
2022-08-08T03:55:02.236Z,80.30
2022-08-08T03:58:34.371Z,80.20
2022-08-08T04:00:30.695Z,80.40
2022-08-08T04:03:11.655Z,81.00
2022-08-08T04:05:48.031Z,81.20
2022-08-08T04:08:33.057Z,81.00
2022-08-08T04:11:11.285Z,81.50
2022-08-08T04:14:03.083Z,82.40
2022-08-08T04:16:40.938Z,82.80
2022-08-08T04:19:25.297Z,83.80
2022-08-08T04:22:00.471Z,83.60
2022-08-08T04:24:36.459Z,83.60
2022-08-08T04:27:19.384Z,83.20
2022-08-08T04:30:00.801Z,82.70
2022-08-08T04:32:47.897Z,83.20
2022-08-08T04:35:16.542Z,83.20
2022-08-08T04:37:45.324Z,83.70
2022-08-08T04:40:24.133Z,84.00
2022-08-08T04:42:58.089Z,83.80
2022-08-08T04:45:51.471Z,83.30
2022-08-08T04:48:21.766Z,84.20
2022-08-08T04:50:51.026Z,84.60
2022-08-08T04:54:37.013Z,85.10
2022-08-08T04:56:13.649Z,84.10
2022-08-08T04:58:42.132Z,83.60
2022-08-08T05:01:11.891Z,83.60
2022-08-08T05:04:09.809Z,82.90
2022-08-08T05:06:36.595Z,82.60
2022-08-08T05:09:08.452Z,82.70
2022-08-08T05:11:40.887Z,82.80
2022-08-08T05:14:14.880Z,82.50
2022-08-08T05:16:54.108Z,82.80
2022-08-08T05:20:11.997Z,82.90
2022-08-08T05:22:20.726Z,82.70
2022-08-08T05:24:50.980Z,82.40
2022-08-08T05:27:23.834Z,82.70
2022-08-08T05:29:53.955Z,83.20
2022-08-08T05:32:36.367Z,82.50
2022-08-08T05:35:06.635Z,81.80
2022-08-08T05:37:53.460Z,81.80
2022-08-08T05:40:35.088Z,81.60
2022-08-08T05:43:38.571Z,81.10
2022-08-08T05:46:07.920Z,80.70
2022-08-08T05:48:41.950Z,81.00
2022-08-08T05:51:15.849Z,80.90
2022-08-08T05:54:24.714Z,80.60
2022-08-08T05:56:47.500Z,80.50
2022-08-08T05:59:53.584Z,79.60
2022-08-08T06:02:38.638Z,79.00
2022-08-08T06:05:34.087Z,79.10
2022-08-08T06:08:02.655Z,78.40
2022-08-08T06:10:40.887Z,77.20
2022-08-08T06:13:12.466Z,77.30
2022-08-08T06:15:51.021Z,77.40
2022-08-08T06:18:31.238Z,76.30
2022-08-08T06:21:11.564Z,75.20
2022-08-08T06:24:02.559Z,74.90
2022-08-08T06:26:45.183Z,74.40
2022-08-08T06:29:56.699Z,74.00
2022-08-08T06:32:21.371Z,73.30
2022-08-08T06:35:12.255Z,72.70
2022-08-08T06:37:55.938Z,72.30
2022-08-08T06:40:32.068Z,71.40
2022-08-08T06:43:06.085Z,71.10
2022-08-08T06:46:00.057Z,70.00
2022-08-08T06:48:30.317Z,68.50
2022-08-08T06:51:06.847Z,68.10
2022-08-08T06:53:39.554Z,67.90
2022-08-08T06:56:10.178Z,67.10
2022-08-08T06:58:40.182Z,65.70
2022-08-08T07:02:18.004Z,65.60
2022-08-08T07:04:39.801Z,65.60
2022-08-08T07:09:59.505Z,64.40
2022-08-08T07:12:39.935Z,53.40
2022-08-08T07:15:31.871Z,45.80
2022-08-08T07:18:36.576Z,41.20
2022-08-08T07:20:55.375Z,37.60
2022-08-08T07:23:28.814Z,35.40
2022-08-08T07:26:31.714Z,32.70
2022-08-08T07:29:05.973Z,30.90
2022-08-08T07:31:37.331Z,30.10
2022-08-08T07:34:09.019Z,28.90
2022-08-08T07:36:48.372Z,28.50
2022-08-08T07:39:29.024Z,28.10
2022-08-08T07:42:04.127Z,28.50
2022-08-08T07:44:37.704Z,27.50
2022-08-08T07:47:10.398Z,27.60
2022-08-08T07:49:40.518Z,27.70
2022-08-08T07:52:22.835Z,26.30
2022-08-08T07:54:59.418Z,27.50
2022-08-08T07:57:40.944Z,27.70
2022-08-08T08:00:16.211Z,26.70
2022-08-08T08:03:08.644Z,27.10
2022-08-08T08:05:43.689Z,27.30
2022-08-08T08:08:18.831Z,27.70
2022-08-08T08:10:52.814Z,27.70
2022-08-08T08:13:42.297Z,27.20
2022-08-08T08:16:23.560Z,27.10
2022-08-08T08:18:57.501Z,26.50
2022-08-08T08:21:44.151Z,26.10
2022-08-08T08:24:32.271Z,26.50
2022-08-08T08:27:03.447Z,26.50
2022-08-08T08:29:35.641Z,26.40
2022-08-08T08:32:06.127Z,26.90
2022-08-08T08:34:37.770Z,27.00
2022-08-08T08:37:12.370Z,26.60
2022-08-08T08:40:00.918Z,26.40
2022-08-08T08:42:36.772Z,26.30
2022-08-08T08:45:23.058Z,26.60
2022-08-08T08:47:58.365Z,26.50
2022-08-08T08:50:35.164Z,26.10
2022-08-08T08:53:34.284Z,25.50
2022-08-08T08:56:08.571Z,25.80
2022-08-08T08:58:43.378Z,25.90
2022-08-08T09:01:27.975Z,25.80
2022-08-08T09:04:01.368Z,25.70
2022-08-08T09:06:38.523Z,25.90
2022-08-08T09:09:26.398Z,25.80
2022-08-08T09:12:12.409Z,25.80
2022-08-08T09:14:45.094Z,26.20
2022-08-08T09:17:31.458Z,26.70
2022-08-08T09:22:00.861Z,27.30
2022-08-08T09:22:59.759Z,27.50
2022-08-08T09:25:36.182Z,26.70
2022-08-08T09:28:35.645Z,26.40
2022-08-08T09:31:14.686Z,26.70
2022-08-08T09:34:14.877Z,27.10
2022-08-08T09:36:51.878Z,27.00
2022-08-08T09:39:32.927Z,26.80
2022-08-08T09:42:20.173Z,27.00
2022-08-08T09:45:03.977Z,28.30
2022-08-08T09:48:10.184Z,28.20
2022-08-08T09:50:32.399Z,27.50
2022-08-08T09:53:23.581Z,27.10
2022-08-08T09:56:04.409Z,27.50
2022-08-08T09:58:41.706Z,27.00
2022-08-08T10:01:59.448Z,27.10
2022-08-08T10:04:15.283Z,27.50
2022-08-08T10:07:07.390Z,27.80
2022-08-08T10:09:59.234Z,28.50
2022-08-08T10:12:52.536Z,28.00
2022-08-08T10:15:22.044Z,27.70
2022-08-08T10:18:06.334Z,27.10
2022-08-08T10:20:57.349Z,27.10
2022-08-08T10:23:44.035Z,27.20
2022-08-08T10:26:30.868Z,27.00
2022-08-08T10:29:22.985Z,27.10
2022-08-08T10:32:15.725Z,27.40
2022-08-08T10:34:57.084Z,27.30
2022-08-08T10:37:30.539Z,27.30
2022-08-08T10:40:02.472Z,27.00
2022-08-08T10:42:37.343Z,27.40
2022-08-08T10:45:09.174Z,28.70
2022-08-08T10:47:43.756Z,29.40
2022-08-08T10:50:16.463Z,30.00
2022-08-08T10:52:44.951Z,31.00
2022-08-08T10:55:40.702Z,32.30
2022-08-08T10:58:09.213Z,32.00
2022-08-08T11:00:48.656Z,32.30
2022-08-08T11:03:36.830Z,32.50
2022-08-08T11:06:12.582Z,32.40
2022-08-08T11:08:53.620Z,33.30
2022-08-08T11:11:32.799Z,32.70
2022-08-08T11:14:16.157Z,32.60
2022-08-08T11:16:46.807Z,32.80
2022-08-08T11:19:17.137Z,32.80
2022-08-08T11:21:55.775Z,33.10
2022-08-08T11:24:27.282Z,33.50
2022-08-08T11:27:19.247Z,33.20
2022-08-08T11:30:18.601Z,32.80
2022-08-08T11:32:42.160Z,32.70
2022-08-08T11:35:27.844Z,33.30
2022-08-08T11:38:35.149Z,33.30
2022-08-08T11:40:53.037Z,33.40
2022-08-08T11:43:24.951Z,33.40
2022-08-08T11:46:09.718Z,32.70
2022-08-08T11:48:44.830Z,32.90
2022-08-08T11:51:34.931Z,32.00
2022-08-08T11:54:04.697Z,32.00
2022-08-08T11:56:35.067Z,31.90
2022-08-08T11:59:13.243Z,32.60
2022-08-08T12:01:41.246Z,31.90
2022-08-08T12:04:10.066Z,32.10
2022-08-08T12:06:39.437Z,31.90
2022-08-08T12:09:17.096Z,32.20
2022-08-08T12:11:49.558Z,32.30
2022-08-08T12:14:29.198Z,31.90
2022-08-08T12:16:57.965Z,31.70
2022-08-08T12:19:37.939Z,31.70
2022-08-08T12:22:20.845Z,32.10
2022-08-08T12:24:54.029Z,32.00
2022-08-08T12:27:26.947Z,31.90
2022-08-08T12:30:15.745Z,31.80
2022-08-08T12:32:49.247Z,31.10
2022-08-08T12:35:23.031Z,31.00
2022-08-08T12:38:03.333Z,31.30
2022-08-08T12:40:54.280Z,31.70
2022-08-08T12:43:46.192Z,31.00
2022-08-08T12:46:25.209Z,31.30
2022-08-08T12:49:22.211Z,30.70
2022-08-08T12:51:49.996Z,30.70
2022-08-08T12:54:28.156Z,30.60
2022-08-08T12:56:57.129Z,30.70
2022-08-08T12:59:36.221Z,30.80
2022-08-08T13:02:08.170Z,31.00
2022-08-08T13:04:37.542Z,30.80
2022-08-08T13:07:07.334Z,31.20
2022-08-08T13:09:43.353Z,30.80
2022-08-08T13:12:32.417Z,30.90
2022-08-08T13:15:04.267Z,30.90
2022-08-08T13:18:09.484Z,30.80
2022-08-08T13:20:24.047Z,30.70
2022-08-08T13:23:30.293Z,30.70
2022-08-08T13:25:50.077Z,30.70
2022-08-08T13:28:32.344Z,30.70
2022-08-08T13:31:01.959Z,30.10
2022-08-08T13:33:42.273Z,30.20
2022-08-08T13:36:11.963Z,30.40
2022-08-08T13:38:40.926Z,30.10
2022-08-08T13:41:15.958Z,30.40
2022-08-08T13:43:46.591Z,30.20
2022-08-08T13:46:27.077Z,30.20
2022-08-08T13:49:12.122Z,30.80
2022-08-08T13:51:57.295Z,30.00
2022-08-08T13:54:29.298Z,29.90
2022-08-08T13:57:08.563Z,29.80
2022-08-08T13:59:44.397Z,29.60
2022-08-08T14:02:21.157Z,29.90
2022-08-08T14:05:04.895Z,29.90
2022-08-08T14:07:39.462Z,30.00
2022-08-08T14:10:17.509Z,30.20
2022-08-08T14:13:05.572Z,30.10
2022-08-08T14:15:50.478Z,30.20
2022-08-08T14:18:36.893Z,30.10
2022-08-08T14:21:20.955Z,30.10
2022-08-08T14:24:07.574Z,30.10
2022-08-08T14:26:42.910Z,30.00
2022-08-08T14:29:28.279Z,30.00
2022-08-08T14:32:08.817Z,29.90
2022-08-08T14:34:43.210Z,29.90
2022-08-08T14:37:17.273Z,30.10
2022-08-08T14:39:51.140Z,30.20
2022-08-08T14:42:36.330Z,30.30
2022-08-08T14:45:18.291Z,30.70
2022-08-08T14:48:00.684Z,30.70
2022-08-08T14:50:39.127Z,31.00
2022-08-08T14:53:13.636Z,31.20
2022-08-08T14:55:43.571Z,30.60
2022-08-08T14:58:16.796Z,30.50
2022-08-08T15:00:49.476Z,30.60
2022-08-08T15:03:18.696Z,30.40
2022-08-08T15:05:54.397Z,30.30
2022-08-08T15:08:35.712Z,30.60
2022-08-08T15:11:10.185Z,31.00
2022-08-08T15:14:00.491Z,31.10
2022-08-08T15:16:29.617Z,31.30
2022-08-08T15:19:03.473Z,31.20
2022-08-08T15:21:31.488Z,30.70
2022-08-08T15:24:01.375Z,31.20
2022-08-08T15:26:31.223Z,31.40
2022-08-08T15:28:59.441Z,31.30
2022-08-08T15:32:03.140Z,31.00
2022-08-08T15:34:29.896Z,31.50
2022-08-08T15:37:03.110Z,31.40
2022-08-08T15:39:38.035Z,31.40
2022-08-08T15:42:10.243Z,30.80
2022-08-08T15:44:39.209Z,31.10
2022-08-08T15:47:15.614Z,30.90
2022-08-08T15:49:48.338Z,31.10
2022-08-08T15:52:18.431Z,31.20
2022-08-08T15:54:52.636Z,31.30
2022-08-08T15:57:23.061Z,31.30
2022-08-08T16:00:07.935Z,31.30
2022-08-08T16:02:43.993Z,31.10
2022-08-08T16:05:19.676Z,31.30
2022-08-08T16:07:52.078Z,31.50
2022-08-08T16:13:11.564Z,31.40
2022-08-08T16:13:34.499Z,31.50
2022-08-08T16:16:09.652Z,31.50
2022-08-08T16:18:56.910Z,31.40
2022-08-08T16:21:29.101Z,31.80
2022-08-08T16:23:58.489Z,31.80
2022-08-08T16:26:33.727Z,31.70
2022-08-08T16:29:07.692Z,31.70
2022-08-08T16:31:40.212Z,31.70
2022-08-08T16:34:09.082Z,31.70
2022-08-08T16:36:38.102Z,31.60
2022-08-08T16:39:09.640Z,31.50
2022-08-08T16:41:51.164Z,31.50
2022-08-08T16:44:28.058Z,31.70
2022-08-08T16:47:17.808Z,31.70
2022-08-08T16:49:49.781Z,31.70
2022-08-08T16:55:20.751Z,32.10
2022-08-08T16:55:24.903Z,32.10
2022-08-08T16:58:15.498Z,32.30
2022-08-08T17:00:48.769Z,32.20
2022-08-08T17:03:24.259Z,32.10
2022-08-08T17:05:56.340Z,32.40
2022-08-08T17:08:24.357Z,32.90
2022-08-08T17:10:58.763Z,33.20
2022-08-08T17:13:49.799Z,33.50
2022-08-08T17:16:22.229Z,33.50
2022-08-08T17:18:53.103Z,33.80
2022-08-08T17:21:21.286Z,33.80
2022-08-08T17:23:58.072Z,33.80
2022-08-08T17:26:30.319Z,33.80
2022-08-08T17:29:04.313Z,33.90
2022-08-08T17:31:45.067Z,33.90
2022-08-08T17:34:53.068Z,33.90
2022-08-08T17:37:09.416Z,34.00
2022-08-08T17:40:04.063Z,34.30
2022-08-08T17:42:29.107Z,34.50
2022-08-08T17:44:58.655Z,34.70
2022-08-08T17:47:37.750Z,34.80
2022-08-08T17:50:11.509Z,34.80
2022-08-08T17:52:43.084Z,35.00
2022-08-08T17:56:06.232Z,35.00
2022-08-08T17:58:02.031Z,35.30
2022-08-08T18:00:32.028Z,35.30
2022-08-08T18:03:09.219Z,35.40
2022-08-08T18:05:48.391Z,35.70
2022-08-08T18:08:24.824Z,36.10
2022-08-08T18:11:15.391Z,36.20
2022-08-08T18:13:45.689Z,36.30
2022-08-08T18:16:20.722Z,36.40
2022-08-08T18:18:52.793Z,36.60
2022-08-08T18:21:34.796Z,36.80
2022-08-08T18:24:17.330Z,36.90
2022-08-08T18:26:55.058Z,37.20
2022-08-08T18:29:30.126Z,37.30
2022-08-08T18:32:04.816Z,37.50
2022-08-08T18:34:34.513Z,37.90
2022-08-08T18:37:08.025Z,37.90
2022-08-08T18:39:37.454Z,38.00
2022-08-08T18:42:13.679Z,38.20
2022-08-08T18:44:55.231Z,38.40
2022-08-08T18:47:26.778Z,38.60
2022-08-08T18:49:58.934Z,38.90
2022-08-08T18:52:29.745Z,39.00
2022-08-08T18:54:59.359Z,39.20
2022-08-08T18:57:41.068Z,39.50
2022-08-08T19:00:16.828Z,39.90
2022-08-08T19:02:55.446Z,40.40
2022-08-08T19:05:34.452Z,40.60
2022-08-08T19:08:25.737Z,40.50
2022-08-08T19:10:59.285Z,40.50
2022-08-08T19:13:53.730Z,40.80
2022-08-08T19:16:19.170Z,41.00
2022-08-08T19:18:57.406Z,41.10
2022-08-08T19:21:33.402Z,41.40
2022-08-08T19:24:05.651Z,41.30
2022-08-08T19:26:34.986Z,41.40
2022-08-08T19:29:03.003Z,41.60
2022-08-08T19:31:35.204Z,41.50
2022-08-08T19:34:35.941Z,41.80
2022-08-08T19:36:55.334Z,42.10
2022-08-08T19:39:26.476Z,42.70
2022-08-08T19:42:03.300Z,43.00
2022-08-08T19:44:42.360Z,43.40
2022-08-08T19:47:12.392Z,43.40
2022-08-08T19:49:43.562Z,43.20
2022-08-08T19:52:35.570Z,43.40
2022-08-08T19:55:08.780Z,43.80
2022-08-08T19:57:37.830Z,43.80
2022-08-08T20:00:11.198Z,43.80
2022-08-08T20:02:56.822Z,44.10
2022-08-08T20:06:15.561Z,44.20
2022-08-08T20:08:38.781Z,44.50
2022-08-08T20:11:03.093Z,44.20
2022-08-08T20:14:34.871Z,44.00
2022-08-08T20:16:20.255Z,44.40
2022-08-08T20:18:53.085Z,44.70
2022-08-08T20:21:25.290Z,45.00
2022-08-08T20:23:58.145Z,45.20
2022-08-08T20:26:33.407Z,45.40
2022-08-08T20:29:03.006Z,45.40
2022-08-08T20:32:08.158Z,45.40
2022-08-08T20:34:29.544Z,45.90
2022-08-08T20:37:02.475Z,45.90
2022-08-08T20:39:34.016Z,46.00
2022-08-08T20:42:09.606Z,46.10
2022-08-08T20:44:37.758Z,46.50
2022-08-08T20:47:22.644Z,46.80
2022-08-08T20:49:54.376Z,46.70
2022-08-08T20:52:28.329Z,46.90
2022-08-08T20:54:57.072Z,47.10
2022-08-08T20:57:27.694Z,47.10
2022-08-08T20:59:56.166Z,47.30
2022-08-08T21:02:26.650Z,47.40
2022-08-08T21:04:57.169Z,47.50
2022-08-08T21:08:33.921Z,47.90
2022-08-08T21:10:21.033Z,48.00
2022-08-08T21:12:54.569Z,48.20
2022-08-08T21:16:03.982Z,48.20
2022-08-08T21:18:12.074Z,48.10
2022-08-08T21:20:41.912Z,48.00
2022-08-08T21:23:13.202Z,48.20
2022-08-08T21:25:48.795Z,48.50
2022-08-08T21:28:19.338Z,48.80
2022-08-08T21:31:22.342Z,48.80
2022-08-08T21:33:49.759Z,48.70
2022-08-08T21:36:20.435Z,48.90
2022-08-08T21:38:50.661Z,49.40
2022-08-08T21:41:38.656Z,49.60
2022-08-08T21:44:06.898Z,50.10
2022-08-08T21:48:05.363Z,50.20
2022-08-08T21:49:23.173Z,50.40
2022-08-08T21:54:32.855Z,50.70
2022-08-08T21:55:02.798Z,51.00
2022-08-08T21:57:42.985Z,51.50
2022-08-08T22:00:25.844Z,51.70
2022-08-08T22:02:54.506Z,51.80
2022-08-08T22:05:23.208Z,52.00
2022-08-08T22:07:51.575Z,52.20
2022-08-08T22:10:32.101Z,52.30
2022-08-08T22:13:18.441Z,52.30
2022-08-08T22:15:58.857Z,52.40
2022-08-08T22:18:30.244Z,52.70
2022-08-08T22:20:59.536Z,52.60
2022-08-08T22:23:36.728Z,52.70
2022-08-08T22:26:26.617Z,52.90
2022-08-08T22:29:14.593Z,53.00
2022-08-08T22:32:01.692Z,53.10
2022-08-08T22:34:32.743Z,54.10
2022-08-08T22:37:01.140Z,53.50
2022-08-08T22:39:45.804Z,53.80
2022-08-08T22:42:27.536Z,53.90
2022-08-08T22:45:02.610Z,54.20
2022-08-08T22:47:36.538Z,54.30
2022-08-08T22:50:09.757Z,54.60
2022-08-08T22:53:00.300Z,54.80
2022-08-08T22:55:57.854Z,55.30
2022-08-08T22:58:31.129Z,55.50
2022-08-08T23:01:00.986Z,55.60
2022-08-08T23:03:34.296Z,55.80
2022-08-08T23:06:17.717Z,56.00
2022-08-08T23:08:56.062Z,56.10
2022-08-08T23:11:58.126Z,56.20
2022-08-08T23:14:18.797Z,56.60
2022-08-08T23:16:54.467Z,56.80
2022-08-08T23:19:26.221Z,57.90
2022-08-08T23:21:54.330Z,57.50
2022-08-08T23:24:23.745Z,58.70
2022-08-08T23:26:53.101Z,58.30
2022-08-08T23:29:27.144Z,58.50
2022-08-08T23:31:58.499Z,58.70
2022-08-08T23:34:29.391Z,59.00
2022-08-08T23:36:59.738Z,59.20
2022-08-08T23:39:32.364Z,59.10
2022-08-08T23:42:10.361Z,59.10
2022-08-08T23:44:39.633Z,59.40
2022-08-08T23:49:02.526Z,59.50
2022-08-08T23:50:03.248Z,59.60
2022-08-08T23:52:34.167Z,60.40
2022-08-08T23:55:14.364Z,59.70
2022-08-08T23:57:52.863Z,59.90
